createdAt,value
2022-09-23T00:01:02.974Z,13.20
2022-09-23T00:03:31.647Z,13.10
2022-09-23T00:06:03.861Z,13.20
2022-09-23T00:08:33.126Z,13.10
2022-09-23T00:11:11.837Z,13.10
2022-09-23T00:13:40.906Z,13.10
2022-09-23T00:16:13.574Z,13.00
2022-09-23T00:18:42.209Z,13.00
2022-09-23T00:21:11.653Z,13.00
2022-09-23T00:23:40.579Z,13.00
2022-09-23T00:26:12.045Z,13.00
2022-09-23T00:28:38.971Z,13.00
2022-09-23T00:31:10.977Z,13.00
2022-09-23T00:33:37.997Z,13.00
2022-09-23T00:36:07.677Z,13.00
2022-09-23T00:38:34.634Z,12.90
2022-09-23T00:41:06.200Z,12.90
2022-09-23T00:43:51.666Z,12.90
2022-09-23T00:46:30.446Z,12.90
2022-09-23T00:49:01.462Z,12.90
2022-09-23T00:51:34.652Z,12.80
2022-09-23T00:54:02.745Z,12.80
2022-09-23T00:56:31.967Z,12.80
2022-09-23T00:59:00.903Z,12.80
2022-09-23T01:01:27.706Z,12.80
2022-09-23T01:03:56.359Z,12.80
2022-09-23T01:06:24.723Z,12.80
2022-09-23T01:08:52.526Z,12.80
2022-09-23T01:11:31.432Z,12.80
2022-09-23T01:14:24.336Z,12.70
2022-09-23T01:17:08.898Z,12.80
2022-09-23T01:20:06.751Z,12.70
2022-09-23T01:22:51.110Z,12.70
2022-09-23T01:25:34.644Z,12.70
2022-09-23T01:28:16.384Z,12.70
2022-09-23T01:30:44.921Z,12.70
2022-09-23T01:33:29.269Z,12.70
2022-09-23T01:36:09.979Z,12.70
2022-09-23T01:38:40.664Z,12.60
2022-09-23T01:41:23.004Z,12.70
2022-09-23T01:43:59.947Z,12.60
2022-09-23T01:46:42.629Z,12.60
2022-09-23T01:49:40.032Z,12.60
2022-09-23T01:52:18.173Z,12.60
2022-09-23T01:55:09.308Z,12.60
2022-09-23T01:57:45.253Z,12.60
2022-09-23T02:00:16.519Z,12.50
2022-09-23T02:02:52.274Z,12.50
2022-09-23T02:05:26.016Z,12.50
2022-09-23T02:08:08.806Z,12.50
2022-09-23T02:10:44.588Z,12.50
2022-09-23T02:13:30.166Z,12.40
2022-09-23T02:16:03.417Z,12.50
2022-09-23T02:18:42.139Z,12.40
2022-09-23T02:21:09.931Z,12.50
2022-09-23T02:23:42.456Z,12.50
2022-09-23T02:26:20.306Z,12.50
2022-09-23T02:28:52.413Z,12.50
2022-09-23T02:31:19.975Z,12.50
2022-09-23T02:33:57.715Z,12.50
2022-09-23T02:36:32.844Z,12.50
2022-09-23T02:39:05.144Z,12.50
2022-09-23T02:41:51.947Z,12.50
2022-09-23T02:44:20.093Z,12.50
2022-09-23T02:46:47.525Z,12.50
2022-09-23T02:49:32.678Z,12.50
2022-09-23T02:52:04.834Z,12.60
2022-09-23T02:54:33.544Z,12.50
2022-09-23T02:57:03.121Z,12.50
2022-09-23T02:59:30.623Z,12.50
2022-09-23T03:02:21.752Z,12.60
2022-09-23T03:05:11.351Z,12.60
2022-09-23T03:07:56.777Z,12.60
2022-09-23T03:10:55.383Z,12.60
2022-09-23T03:13:48.638Z,12.60
2022-09-23T03:16:33.731Z,12.60
2022-09-23T03:19:23.353Z,12.60
2022-09-23T03:22:13.038Z,12.70
2022-09-23T03:24:44.861Z,12.70
2022-09-23T03:27:18.748Z,12.70
2022-09-23T03:29:48.598Z,12.70
2022-09-23T03:32:19.387Z,12.70
2022-09-23T03:34:50.671Z,12.70
2022-09-23T03:37:40.685Z,12.80
2022-09-23T03:40:22.399Z,12.80
2022-09-23T03:42:49.234Z,12.80
2022-09-23T03:45:20.252Z,12.80
2022-09-23T03:47:49.450Z,12.90
2022-09-23T03:50:17.354Z,12.80
2022-09-23T03:52:44.516Z,12.80
2022-09-23T03:55:11.804Z,12.90
2022-09-23T03:57:39.667Z,12.90
2022-09-23T04:00:09.642Z,12.90
2022-09-23T04:02:36.395Z,12.90
2022-09-23T04:05:06.001Z,12.90
2022-09-23T04:07:32.746Z,12.90
2022-09-23T04:09:59.547Z,12.90
2022-09-23T04:12:28.684Z,13.00
2022-09-23T04:14:55.617Z,13.00
2022-09-23T04:17:22.382Z,13.00
2022-09-23T04:19:49.076Z,13.00
2022-09-23T04:22:15.796Z,13.10
2022-09-23T04:24:42.481Z,13.10
2022-09-23T04:27:09.218Z,13.10
2022-09-23T04:29:35.944Z,13.10
2022-09-23T04:32:02.830Z,13.10
2022-09-23T04:34:29.506Z,13.10
2022-09-23T04:36:56.349Z,13.10
2022-09-23T04:39:23.084Z,13.10
2022-09-23T04:41:49.804Z,13.20
2022-09-23T04:44:17.147Z,13.20
2022-09-23T04:46:48.091Z,13.20
2022-09-23T04:49:16.040Z,13.20
2022-09-23T04:51:43.708Z,13.20
2022-09-23T04:54:11.786Z,13.20
2022-09-23T04:56:41.172Z,13.30
2022-09-23T04:59:08.725Z,13.30
2022-09-23T05:01:36.334Z,13.30
2022-09-23T05:04:06.272Z,13.30
2022-09-23T05:06:39.707Z,13.30
2022-09-23T05:09:08.557Z,13.30
2022-09-23T05:11:36.056Z,13.30
2022-09-23T05:14:04.940Z,13.30
2022-09-23T05:16:31.730Z,13.40
2022-09-23T05:19:01.004Z,13.40
2022-09-23T05:21:31.320Z,13.40
2022-09-23T05:24:01.265Z,13.40
2022-09-23T05:26:30.671Z,13.40
2022-09-23T05:28:58.722Z,13.40
2022-09-23T05:31:30.040Z,13.40
2022-09-23T05:33:59.516Z,13.40
2022-09-23T05:36:27.890Z,13.40
2022-09-23T05:38:56.953Z,13.50
2022-09-23T05:41:26.427Z,13.50
2022-09-23T05:43:54.893Z,13.50
2022-09-23T05:46:24.384Z,13.50
2022-09-23T05:48:51.351Z,13.50
2022-09-23T05:51:27.502Z,13.60
2022-09-23T05:53:58.315Z,13.60
2022-09-23T05:56:28.094Z,13.60
2022-09-23T05:58:57.503Z,13.70
2022-09-23T06:01:33.406Z,13.60
2022-09-23T06:04:01.682Z,13.70
2022-09-23T06:06:30.869Z,13.70
2022-09-23T06:08:59.148Z,13.70
2022-09-23T06:11:26.546Z,13.80
2022-09-23T06:14:01.292Z,13.80
2022-09-23T06:16:30.237Z,13.80
2022-09-23T06:18:58.860Z,13.90
2022-09-23T06:21:28.465Z,13.90
2022-09-23T06:23:57.275Z,13.90
2022-09-23T06:26:24.132Z,13.90
2022-09-23T06:28:50.963Z,14.00
2022-09-23T06:31:17.830Z,14.00
2022-09-23T06:33:46.085Z,14.00
2022-09-23T06:36:28.170Z,14.10
2022-09-23T06:39:02.333Z,14.10
2022-09-23T06:41:29.507Z,14.10
2022-09-23T06:43:56.187Z,14.30
2022-09-23T06:46:23.070Z,14.20
2022-09-23T06:48:51.078Z,14.30
2022-09-23T06:51:21.757Z,14.40
2022-09-23T06:53:49.330Z,14.40
2022-09-23T06:56:17.867Z,14.40
2022-09-23T06:58:44.698Z,14.50
2022-09-23T07:01:16.112Z,14.50
2022-09-23T07:03:47.138Z,14.60
2022-09-23T07:06:14.489Z,14.60
2022-09-23T07:08:44.280Z,14.70
2022-09-23T07:11:13.450Z,14.70
2022-09-23T07:13:42.310Z,14.80
2022-09-23T07:16:10.893Z,14.90
2022-09-23T07:18:38.260Z,14.90
2022-09-23T07:21:15.233Z,15.00
2022-09-23T07:23:43.310Z,15.00
2022-09-23T07:26:10.450Z,15.10
2022-09-23T07:28:38.442Z,15.10
2022-09-23T07:31:11.081Z,15.10
2022-09-23T07:33:48.256Z,15.20
2022-09-23T07:36:19.212Z,15.20
2022-09-23T07:38:47.426Z,15.20
2022-09-23T07:41:18.048Z,15.30
2022-09-23T07:43:46.106Z,15.30
2022-09-23T07:46:16.857Z,15.30
2022-09-23T07:48:44.697Z,15.30
2022-09-23T07:51:20.927Z,15.40
2022-09-23T07:53:52.999Z,15.40
2022-09-23T07:56:22.587Z,15.50
2022-09-23T07:59:04.335Z,15.60
2022-09-23T08:01:35.485Z,15.60
2022-09-23T08:04:11.505Z,15.70
2022-09-23T08:06:46.854Z,15.80
2022-09-23T08:09:14.479Z,15.90
2022-09-23T08:11:42.082Z,15.90
2022-09-23T08:14:12.846Z,16.00
2022-09-23T08:16:40.930Z,16.10
2022-09-23T08:19:08.503Z,16.10
2022-09-23T08:21:39.194Z,16.20
2022-09-23T08:24:13.753Z,16.30
2022-09-23T08:26:48.148Z,16.30
2022-09-23T08:29:21.535Z,16.40
2022-09-23T08:31:49.539Z,16.50
2022-09-23T08:34:20.535Z,16.60
2022-09-23T08:36:47.515Z,16.60
2022-09-23T08:39:19.294Z,16.70
2022-09-23T08:41:46.069Z,16.80
2022-09-23T08:44:26.697Z,16.80
2022-09-23T08:47:11.297Z,16.90
2022-09-23T08:50:07.221Z,16.90
2022-09-23T08:53:02.819Z,16.90
2022-09-23T08:55:41.978Z,17.00
2022-09-23T08:58:46.152Z,17.10
2022-09-23T09:01:31.734Z,17.20
2022-09-23T09:04:18.133Z,17.20
2022-09-23T09:06:53.537Z,17.20
2022-09-23T09:09:30.767Z,17.30
2022-09-23T09:12:11.157Z,17.20
2022-09-23T09:14:50.167Z,17.30
2022-09-23T09:17:31.702Z,17.30
2022-09-23T09:20:40.432Z,17.30
2022-09-23T09:23:33.045Z,17.40
2022-09-23T09:26:02.183Z,17.50
2022-09-23T09:28:48.929Z,17.50
2022-09-23T09:31:34.662Z,17.60
2022-09-23T09:34:27.974Z,17.60
2022-09-23T09:37:41.844Z,17.60
2022-09-23T09:40:13.122Z,17.60
2022-09-23T09:42:41.682Z,17.70
2022-09-23T09:45:14.876Z,17.70
2022-09-23T09:48:02.307Z,17.80
2022-09-23T09:50:49.130Z,17.80
2022-09-23T09:53:32.143Z,17.90
2022-09-23T09:56:06.043Z,17.90
2022-09-23T09:58:54.893Z,18.00
2022-09-23T10:01:28.624Z,18.10
2022-09-23T10:04:00.409Z,18.10
2022-09-23T10:06:36.020Z,18.20
2022-09-23T10:09:08.162Z,18.20
2022-09-23T10:11:38.389Z,18.20
2022-09-23T10:14:10.102Z,18.20
2022-09-23T10:16:37.159Z,18.20
2022-09-23T10:19:12.334Z,18.30
2022-09-23T10:21:42.320Z,18.30
2022-09-23T10:24:22.458Z,18.30
2022-09-23T10:27:08.441Z,18.40
2022-09-23T10:29:50.982Z,18.40
2022-09-23T10:32:37.443Z,18.40
2022-09-23T10:35:08.977Z,18.40
2022-09-23T10:37:35.638Z,18.40
2022-09-23T10:40:40.321Z,18.40
2022-09-23T10:43:39.260Z,18.40
2022-09-23T10:46:30.084Z,18.40
2022-09-23T10:49:31.040Z,18.50
2022-09-23T10:52:25.557Z,18.50
2022-09-23T10:55:17.106Z,18.60
2022-09-23T10:57:46.744Z,18.60
2022-09-23T11:00:59.621Z,18.70
2022-09-23T11:03:48.841Z,18.80
2022-09-23T11:06:27.186Z,18.90
2022-09-23T11:09:18.496Z,19.00
2022-09-23T11:11:59.001Z,19.00
2022-09-23T11:15:00.103Z,19.10
2022-09-23T11:17:32.937Z,19.20
2022-09-23T11:20:23.314Z,19.30
2022-09-23T11:23:11.155Z,19.50
2022-09-23T11:26:05.073Z,19.60
2022-09-23T11:28:53.849Z,19.80
2022-09-23T11:31:59.712Z,19.80
2022-09-23T11:34:59.772Z,19.90
2022-09-23T11:37:30.340Z,20.00
2022-09-23T11:40:04.833Z,20.20
2022-09-23T11:42:40.551Z,20.30
2022-09-23T11:45:17.041Z,20.40
2022-09-23T11:48:05.842Z,20.40
2022-09-23T11:50:58.777Z,20.50
2022-09-23T11:53:47.662Z,20.60
2022-09-23T11:56:36.418Z,20.60
2022-09-23T11:59:36.589Z,20.70
2022-09-23T12:02:20.629Z,20.70
2022-09-23T12:05:10.658Z,20.70
2022-09-23T12:07:55.792Z,20.70
2022-09-23T12:10:59.226Z,20.60
2022-09-23T12:14:01.338Z,20.50
2022-09-23T12:16:53.785Z,20.50
2022-09-23T12:19:47.625Z,20.40
2022-09-23T12:22:33.310Z,20.30
2022-09-23T12:25:43.366Z,20.30
2022-09-23T12:28:18.664Z,20.30
2022-09-23T12:30:47.093Z,20.40
2022-09-23T12:33:28.403Z,20.30
2022-09-23T12:36:02.394Z,20.30
2022-09-23T12:38:41.149Z,20.30
2022-09-23T12:41:27.127Z,20.40
2022-09-23T12:43:59.111Z,20.40
2022-09-23T12:46:27.591Z,20.40
2022-09-23T12:48:58.115Z,20.30
2022-09-23T12:51:26.454Z,20.30
2022-09-23T12:54:04.795Z,20.30
2022-09-23T12:56:34.451Z,20.30
2022-09-23T12:59:16.546Z,20.30
2022-09-23T13:01:44.321Z,20.30
2022-09-23T13:04:51.792Z,20.20
2022-09-23T13:07:25.382Z,20.20
2022-09-23T13:09:56.291Z,20.10
2022-09-23T13:12:34.502Z,20.10
2022-09-23T13:15:11.808Z,20.00
2022-09-23T13:17:40.022Z,20.00
2022-09-23T13:20:33.002Z,20.00
2022-09-23T13:23:07.494Z,19.90
2022-09-23T13:25:43.518Z,19.90
2022-09-23T13:28:41.984Z,19.90
2022-09-23T13:31:16.743Z,19.90
2022-09-23T13:33:51.555Z,19.90
2022-09-23T13:36:19.647Z,19.90
2022-09-23T13:38:46.949Z,19.80
2022-09-23T13:41:28.564Z,19.80
2022-09-23T13:44:00.244Z,19.70
2022-09-23T13:46:31.295Z,19.60
2022-09-23T13:48:58.653Z,19.60
2022-09-23T13:51:30.839Z,19.60
2022-09-23T13:53:59.927Z,19.50
2022-09-23T13:56:29.628Z,19.50
2022-09-23T13:59:23.693Z,19.50
2022-09-23T14:01:52.603Z,19.40
2022-09-23T14:04:26.027Z,19.40
2022-09-23T14:06:54.259Z,19.40
2022-09-23T14:09:27.484Z,19.40
2022-09-23T14:11:56.505Z,19.40
2022-09-23T14:14:23.791Z,19.40
2022-09-23T14:16:51.992Z,19.40
2022-09-23T14:19:21.371Z,19.40
2022-09-23T14:21:50.652Z,19.40
2022-09-23T14:24:21.722Z,19.40
2022-09-23T14:27:06.917Z,19.30
2022-09-23T14:29:42.481Z,19.30
2022-09-23T14:32:13.657Z,19.30
2022-09-23T14:34:45.061Z,19.30
2022-09-23T14:37:43.774Z,19.30
2022-09-23T14:40:30.785Z,19.30
2022-09-23T14:43:15.883Z,19.30
2022-09-23T14:45:49.929Z,19.30
2022-09-23T14:48:22.205Z,19.30
2022-09-23T14:51:00.943Z,19.30
2022-09-23T14:53:45.705Z,19.30
2022-09-23T14:56:17.737Z,19.30
2022-09-23T14:58:52.333Z,19.30
2022-09-23T15:01:32.190Z,19.20
2022-09-23T15:04:12.121Z,19.10
2022-09-23T15:06:42.144Z,19.10
2022-09-23T15:09:15.566Z,19.10
2022-09-23T15:11:42.370Z,19.00
2022-09-23T15:14:36.134Z,19.10
2022-09-23T15:17:02.945Z,19.10
2022-09-23T15:19:38.401Z,19.00
2022-09-23T15:22:11.230Z,19.00
2022-09-23T15:24:44.943Z,19.00
2022-09-23T15:27:25.903Z,18.90
2022-09-23T15:29:54.107Z,18.80
2022-09-23T15:32:24.900Z,18.70
2022-09-23T15:34:56.368Z,18.70
2022-09-23T15:37:23.006Z,18.60
2022-09-23T15:39:49.782Z,18.50
2022-09-23T15:42:18.220Z,18.40
2022-09-23T15:44:48.982Z,18.40
2022-09-23T15:47:22.506Z,18.30
2022-09-23T15:49:49.373Z,18.20
2022-09-23T15:52:16.396Z,18.10
2022-09-23T15:54:43.872Z,18.00
2022-09-23T15:57:13.190Z,17.90
2022-09-23T15:59:40.954Z,17.80
2022-09-23T16:02:20.274Z,17.70
2022-09-23T16:04:50.484Z,17.70
2022-09-23T16:07:19.701Z,17.60
2022-09-23T16:09:48.893Z,17.60
2022-09-23T16:12:18.715Z,17.60
2022-09-23T16:14:47.842Z,17.50
2022-09-23T16:17:17.108Z,17.50
2022-09-23T16:19:43.865Z,17.50
2022-09-23T16:22:17.798Z,17.50
2022-09-23T16:24:47.561Z,17.50
2022-09-23T16:27:19.060Z,17.50
2022-09-23T16:29:45.749Z,17.50
2022-09-23T16:32:18.975Z,17.50
2022-09-23T16:34:51.053Z,17.60
2022-09-23T16:37:18.472Z,17.60
2022-09-23T16:39:47.373Z,17.60
2022-09-23T16:42:14.087Z,17.60
2022-09-23T16:44:41.578Z,17.60
2022-09-23T16:47:08.725Z,17.70
2022-09-23T16:49:35.600Z,17.70
2022-09-23T16:52:02.462Z,17.70
2022-09-23T16:54:31.612Z,17.80
2022-09-23T16:57:00.572Z,17.80
2022-09-23T16:59:50.457Z,17.70
2022-09-23T17:02:35.655Z,17.70
2022-09-23T17:05:06.357Z,17.70
2022-09-23T17:07:33.134Z,17.70
2022-09-23T17:10:06.287Z,17.70
2022-09-23T17:12:35.060Z,17.70
2022-09-23T17:15:07.168Z,17.60
2022-09-23T17:17:42.900Z,17.70
2022-09-23T17:20:13.090Z,17.60
2022-09-23T17:22:41.322Z,17.60
2022-09-23T17:25:09.340Z,17.60
2022-09-23T17:27:39.113Z,17.50
2022-09-23T17:30:09.327Z,17.50
2022-09-23T17:32:38.220Z,17.50
2022-09-23T17:35:09.857Z,17.50
2022-09-23T17:37:37.336Z,17.50
2022-09-23T17:40:05.115Z,17.50
2022-09-23T17:42:35.648Z,17.50
2022-09-23T17:45:08.628Z,17.40
2022-09-23T17:47:39.483Z,17.40
2022-09-23T17:50:08.306Z,17.40
2022-09-23T17:52:38.068Z,17.40
2022-09-23T17:55:08.801Z,17.40
2022-09-23T17:57:37.992Z,17.40
2022-09-23T18:00:05.293Z,17.40
2022-09-23T18:02:32.240Z,17.40
2022-09-23T18:04:59.037Z,17.40
2022-09-23T18:07:29.549Z,17.40
2022-09-23T18:09:58.620Z,17.40
2022-09-23T18:12:25.365Z,17.40
2022-09-23T18:14:52.176Z,17.30
2022-09-23T18:17:18.952Z,17.30
2022-09-23T18:19:49.112Z,17.30
2022-09-23T18:22:18.278Z,17.10
2022-09-23T18:24:45.636Z,17.00
2022-09-23T18:27:12.548Z,16.80
2022-09-23T18:29:39.288Z,16.70
2022-09-23T18:32:12.123Z,16.60
2022-09-23T18:34:43.260Z,16.50
2022-09-23T18:37:15.650Z,16.40
2022-09-23T18:39:43.326Z,16.30
2022-09-23T18:42:13.105Z,16.30
2022-09-23T18:44:42.785Z,16.20
2022-09-23T18:47:29.435Z,16.10
2022-09-23T18:50:14.632Z,16.00
2022-09-23T18:52:44.131Z,16.00
2022-09-23T18:55:13.682Z,15.90
2022-09-23T18:57:42.945Z,15.90
2022-09-23T19:00:10.287Z,15.90
2022-09-23T19:02:37.044Z,15.80
2022-09-23T19:05:07.217Z,15.80
2022-09-23T19:07:36.049Z,15.70
2022-09-23T19:10:05.412Z,15.70
2022-09-23T19:12:34.650Z,15.70
2022-09-23T19:15:04.682Z,15.70
2022-09-23T19:17:33.956Z,15.70
2022-09-23T19:20:00.817Z,15.70
2022-09-23T19:22:27.627Z,15.60
2022-09-23T19:25:00.183Z,15.60
2022-09-23T19:27:27.101Z,15.60
2022-09-23T19:29:56.829Z,15.60
2022-09-23T19:32:26.710Z,15.50
2022-09-23T19:34:57.490Z,15.50
2022-09-23T19:37:26.744Z,15.50
2022-09-23T19:39:53.602Z,15.50
2022-09-23T19:42:20.336Z,15.50
2022-09-23T19:44:50.240Z,15.50
2022-09-23T19:47:17.529Z,15.40
2022-09-23T19:49:44.369Z,15.40
2022-09-23T19:52:12.019Z,15.40
2022-09-23T19:54:41.711Z,15.40
2022-09-23T19:57:09.116Z,15.40
2022-09-23T19:59:39.182Z,15.40
2022-09-23T20:02:11.760Z,15.40
2022-09-23T20:04:38.726Z,15.40
2022-09-23T20:07:05.407Z,15.40
2022-09-23T20:09:33.795Z,15.40
2022-09-23T20:12:02.121Z,15.40
2022-09-23T20:14:31.623Z,15.40
2022-09-23T20:17:00.203Z,15.40
2022-09-23T20:19:27.021Z,15.50
2022-09-23T20:22:13.734Z,15.40
2022-09-23T20:24:42.787Z,15.40
2022-09-23T20:27:12.020Z,15.40
2022-09-23T20:29:38.778Z,15.40
2022-09-23T20:32:06.028Z,15.40
2022-09-23T20:34:34.903Z,15.40
2022-09-23T20:37:01.774Z,15.50
2022-09-23T20:39:30.623Z,15.40
2022-09-23T20:41:57.597Z,15.50
2022-09-23T20:44:25.059Z,15.50
2022-09-23T20:46:55.743Z,15.50
2022-09-23T20:49:22.615Z,15.50
2022-09-23T20:51:50.240Z,15.50
2022-09-23T20:54:20.952Z,15.50
2022-09-23T20:56:48.004Z,15.50
2022-09-23T20:59:14.973Z,15.50
2022-09-23T21:01:42.810Z,15.50
2022-09-23T21:04:10.466Z,15.50
2022-09-23T21:06:37.890Z,15.50
2022-09-23T21:09:06.166Z,15.50
2022-09-23T21:11:32.867Z,15.50
2022-09-23T21:14:01.125Z,15.50
2022-09-23T21:16:30.227Z,15.50
2022-09-23T21:18:58.303Z,15.50
2022-09-23T21:21:25.278Z,15.50
2022-09-23T21:23:52.129Z,15.50
2022-09-23T21:26:24.632Z,15.50
2022-09-23T21:28:57.585Z,15.50
2022-09-23T21:31:33.779Z,15.50
2022-09-23T21:34:08.535Z,15.50
2022-09-23T21:36:41.407Z,15.60
2022-09-23T21:39:10.353Z,15.60
2022-09-23T21:41:37.708Z,15.60
2022-09-23T21:44:07.766Z,15.60
2022-09-23T21:46:35.096Z,15.60
2022-09-23T21:49:03.644Z,15.60
2022-09-23T21:51:38.796Z,15.60
2022-09-23T21:54:07.237Z,15.60
2022-09-23T21:56:36.338Z,15.60
2022-09-23T21:59:04.088Z,15.60
2022-09-23T22:01:35.149Z,15.60
2022-09-23T22:04:15.316Z,15.60
2022-09-23T22:06:44.497Z,15.50
2022-09-23T22:09:14.498Z,15.50
2022-09-23T22:12:00.286Z,15.50
2022-09-23T22:14:27.722Z,15.50
2022-09-23T22:16:57.351Z,15.50
2022-09-23T22:19:32.808Z,15.50
2022-09-23T22:22:00.048Z,15.50
2022-09-23T22:24:26.730Z,15.50
2022-09-23T22:26:53.684Z,15.40
2022-09-23T22:29:42.501Z,15.40
2022-09-23T22:32:30.045Z,15.40
2022-09-23T22:34:57.526Z,15.40
2022-09-23T22:37:27.232Z,15.40
2022-09-23T22:39:54.699Z,15.40
2022-09-23T22:42:22.404Z,15.40
2022-09-23T22:44:50.080Z,15.40
2022-09-23T22:47:19.922Z,15.40
2022-09-23T22:49:49.431Z,15.40
2022-09-23T22:52:21.168Z,15.40
2022-09-23T22:54:48.291Z,15.40
2022-09-23T22:57:17.184Z,15.40
2022-09-23T22:59:47.996Z,15.30
2022-09-23T23:02:16.628Z,15.40
2022-09-23T23:04:45.183Z,15.40
2022-09-23T23:07:14.002Z,15.40
2022-09-23T23:09:41.146Z,15.40
2022-09-23T23:12:08.088Z,15.40
2022-09-23T23:14:36.346Z,15.40
2022-09-23T23:17:07.220Z,15.40
2022-09-23T23:19:35.078Z,15.40
2022-09-23T23:22:02.086Z,15.40
2022-09-23T23:24:28.971Z,15.40
2022-09-23T23:26:55.848Z,15.40
2022-09-23T23:29:23.429Z,15.40
2022-09-23T23:31:50.864Z,15.30
2022-09-23T23:34:20.276Z,15.30
2022-09-23T23:36:54.445Z,15.30
2022-09-23T23:39:25.694Z,15.30
2022-09-23T23:41:54.186Z,15.40
2022-09-23T23:44:21.241Z,15.30
2022-09-23T23:46:49.215Z,15.30
2022-09-23T23:49:16.270Z,15.30
2022-09-23T23:51:43.024Z,15.30
2022-09-23T23:54:11.665Z,15.20
2022-09-23T23:56:40.619Z,15.20
2022-09-23T23:59:07.474Z,15.30
